Ecum Secum, Canada
Current Conditions -  °F | °C
As of 8:00 AM on Tuesday 27 Jan 2015 (Local Time) from CYPD Reporting Station
Light Snow Light Snow  
Wind Chill:   Ceiling: 1700
Heat Index: 19°   Visibility: 1mi
Dew Point: 16°   Wind: 23mph
Humidity: 86%   Direction: 60°ENE
Pressure: 30.01"   Gusts: 41mph
Location:  44.97°N, 62.12°W
Report Text: CYPD 271200Z AUTO 06020G36KT 1SM -SN VV017 M07/M09 A3001 RMK PRESFR SLP171
Loading
Personal Weather Stations






























Interactive Weather Map New forecast layout! Learn more

10-Day Weather Forecast

Advertisements
Track Severe Weather on mobile